sensor_id;sensor_type;location;lat;lon;timestamp;pressure;altitude;pressure_sealevel;temperature;humidity
22181;BME280;11256;50.830;12.834;2022-10-31T00:04:29;98048.66;;;16.90;51.50
22181;BME280;11256;50.830;12.834;2022-10-31T00:09:29;98045.13;;;16.90;51.48
22181;BME280;11256;50.830;12.834;2022-10-31T00:14:29;98035.53;;;16.79;51.27
22181;BME280;11256;50.830;12.834;2022-10-31T00:19:30;98040.00;;;16.75;51.56
22181;BME280;11256;50.830;12.834;2022-10-31T00:24:30;98044.28;;;16.67;51.66
22181;BME280;11256;50.830;12.834;2022-10-31T00:29:30;98055.44;;;16.71;51.63
22181;BME280;11256;50.830;12.834;2022-10-31T00:34:31;98047.16;;;16.62;51.84
22181;BME280;11256;50.830;12.834;2022-10-31T00:39:33;98044.34;;;16.54;51.90
22181;BME280;11256;50.830;12.834;2022-10-31T00:44:34;98049.56;;;16.42;52.20
22181;BME280;11256;50.830;12.834;2022-10-31T00:49:34;98043.16;;;16.33;52.29
22181;BME280;11256;50.830;12.834;2022-10-31T00:54:34;98051.00;;;16.26;52.59
22181;BME280;11256;50.830;12.834;2022-10-31T00:59:35;98057.22;;;16.18;52.84
22181;BME280;11256;50.830;12.834;2022-10-31T01:04:35;98055.38;;;16.13;53.04
22181;BME280;11256;50.830;12.834;2022-10-31T01:09:36;98057.44;;;16.08;53.57
22181;BME280;11256;50.830;12.834;2022-10-31T01:14:37;98051.53;;;16.01;53.84
22181;BME280;11256;50.830;12.834;2022-10-31T01:19:37;98054.41;;;15.96;54.10
22181;BME280;11256;50.830;12.834;2022-10-31T01:24:37;98055.59;;;15.90;53.51
22181;BME280;11256;50.830;12.834;2022-10-31T01:29:38;98048.63;;;15.84;53.51
22181;BME280;11256;50.830;12.834;2022-10-31T01:34:38;98052.00;;;15.81;53.15
22181;BME280;11256;50.830;12.834;2022-10-31T01:39:39;98059.38;;;15.80;53.37
22181;BME280;11256;50.830;12.834;2022-10-31T01:49:52;98050.56;;;15.70;53.48
22181;BME280;11256;50.830;12.834;2022-10-31T01:55:04;98057.75;;;15.66;53.56
22181;BME280;11256;50.830;12.834;2022-10-31T02:00:07;98071.31;;;15.57;53.70
22181;BME280;11256;50.830;12.834;2022-10-31T02:05:20;98049.34;;;15.49;53.87
22181;BME280;11256;50.830;12.834;2022-10-31T02:10:23;98053.59;;;15.41;54.41
22181;BME280;11256;50.830;12.834;2022-10-31T02:15:24;98062.09;;;15.40;54.65
22181;BME280;11256;50.830;12.834;2022-10-31T02:20:29;98063.69;;;15.41;54.16
22181;BME280;11256;50.830;12.834;2022-10-31T02:25:56;98067.84;;;15.38;54.30
22181;BME280;11256;50.830;12.834;2022-10-31T02:31:43;98054.97;;;15.25;54.37
22181;BME280;11256;50.830;12.834;2022-10-31T02:37:07;98067.28;;;15.23;54.69
22181;BME280;11256;50.830;12.834;2022-10-31T02:42:19;98067.47;;;15.13;55.09
22181;BME280;11256;50.830;12.834;2022-10-31T02:47:33;98066.56;;;15.04;55.11
22181;BME280;11256;50.830;12.834;2022-10-31T02:52:36;98065.41;;;14.91;54.91
22181;BME280;11256;50.830;12.834;2022-10-31T02:57:39;98060.84;;;14.87;55.66
22181;BME280;11256;50.830;12.834;2022-10-31T03:08:00;98072.94;;;14.81;55.72
22181;BME280;11256;50.830;12.834;2022-10-31T03:18:28;98071.34;;;14.61;55.89
22181;BME280;11256;50.830;12.834;2022-10-31T03:23:30;98070.09;;;14.54;55.89
22181;BME280;11256;50.830;12.834;2022-10-31T03:28:38;98082.19;;;14.48;56.10
22181;BME280;11256;50.830;12.834;2022-10-31T03:33:42;98076.28;;;14.41;56.17
22181;BME280;11256;50.830;12.834;2022-10-31T03:38:45;98091.63;;;14.37;56.13
22181;BME280;11256;50.830;12.834;2022-10-31T03:44:12;98098.47;;;14.34;56.21
22181;BME280;11256;50.830;12.834;2022-10-31T03:49:15;98095.91;;;14.24;56.35
22181;BME280;11256;50.830;12.834;2022-10-31T03:54:26;98093.50;;;14.18;56.34
22181;BME280;11256;50.830;12.834;2022-10-31T03:59:33;98083.78;;;14.12;56.82
22181;BME280;11256;50.830;12.834;2022-10-31T04:04:36;98092.53;;;14.09;56.50
22181;BME280;11256;50.830;12.834;2022-10-31T04:09:42;98096.72;;;14.01;56.41
22181;BME280;11256;50.830;12.834;2022-10-31T04:14:47;98090.31;;;13.92;56.78
22181;BME280;11256;50.830;12.834;2022-10-31T04:19:48;98098.16;;;13.94;56.77
22181;BME280;11256;50.830;12.834;2022-10-31T04:24:49;98092.25;;;13.87;56.89
22181;BME280;11256;50.830;12.834;2022-10-31T04:29:50;98085.78;;;13.83;56.97
22181;BME280;11256;50.830;12.834;2022-10-31T04:34:51;98085.31;;;13.76;56.93
22181;BME280;11256;50.830;12.834;2022-10-31T04:39:51;98101.44;;;13.72;56.59
22181;BME280;11256;50.830;12.834;2022-10-31T04:45:10;98097.72;;;13.63;56.84
22181;BME280;11256;50.830;12.834;2022-10-31T04:50:13;98086.66;;;13.55;56.98
22181;BME280;11256;50.830;12.834;2022-10-31T04:55:13;98092.63;;;13.57;57.30
22181;BME280;11256;50.830;12.834;2022-10-31T05:00:32;98102.47;;;13.53;57.50
22181;BME280;11256;50.830;12.834;2022-10-31T05:05:33;98096.53;;;13.51;57.12
22181;BME280;11256;50.830;12.834;2022-10-31T05:10:36;98097.72;;;13.40;57.35
22181;BME280;11256;50.830;12.834;2022-10-31T05:15:37;98092.34;;;13.35;57.62
22181;BME280;11256;50.830;12.834;2022-10-31T05:21:16;98096.53;;;13.22;57.06
22181;BME280;11256;50.830;12.834;2022-10-31T05:26:28;98104.16;;;13.20;57.55
22181;BME280;11256;50.830;12.834;2022-10-31T05:31:29;98099.59;;;13.16;57.87
22181;BME280;11256;50.830;12.834;2022-10-31T05:36:30;98103.97;;;13.12;58.05
22181;BME280;11256;50.830;12.834;2022-10-31T05:41:36;98109.72;;;13.10;57.98
22181;BME280;11256;50.830;12.834;2022-10-31T05:46:47;98110.59;;;13.01;57.63
22181;BME280;11256;50.830;12.834;2022-10-31T05:51:53;98114.72;;;12.93;57.69
22181;BME280;11256;50.830;12.834;2022-10-31T05:56:59;98107.41;;;12.89;58.02
22181;BME280;11256;50.830;12.834;2022-10-31T06:02:00;98117.50;;;12.88;58.38
22181;BME280;11256;50.830;12.834;2022-10-31T06:07:19;98118.88;;;12.86;58.56
22181;BME280;11256;50.830;12.834;2022-10-31T06:12:20;98128.09;;;12.85;58.43
22181;BME280;11256;50.830;12.834;2022-10-31T06:17:47;98119.19;;;12.79;58.48
22181;BME280;11256;50.830;12.834;2022-10-31T06:22:58;98113.25;;;12.77;58.93
22181;BME280;11256;50.830;12.834;2022-10-31T06:27:58;98123.56;;;12.75;58.32
22181;BME280;11256;50.830;12.834;2022-10-31T06:33:06;98134.69;;;12.79;58.79
22181;BME280;11256;50.830;12.834;2022-10-31T06:38:09;98140.56;;;12.96;59.60
22181;BME280;11256;50.830;12.834;2022-10-31T06:43:12;98141.38;;;13.30;61.01
22181;BME280;11256;50.830;12.834;2022-10-31T06:48:15;98144.34;;;13.62;61.31
22181;BME280;11256;50.830;12.834;2022-10-31T06:53:35;98142.53;;;13.76;60.86
22181;BME280;11256;50.830;12.834;2022-10-31T06:58:37;98158.13;;;13.94;60.49
22181;BME280;11256;50.830;12.834;2022-10-31T07:03:40;98158.66;;;13.96;60.23
22181;BME280;11256;50.830;12.834;2022-10-31T07:08:41;98163.81;;;13.97;59.76
22181;BME280;11256;50.830;12.834;2022-10-31T07:13:42;98161.38;;;13.96;59.71
22181;BME280;11256;50.830;12.834;2022-10-31T07:18:43;98159.81;;;13.90;60.00
22181;BME280;11256;50.830;12.834;2022-10-31T07:23:49;98163.06;;;13.92;60.38
22181;BME280;11256;50.830;12.834;2022-10-31T07:29:07;98180.50;;;13.91;60.20
22181;BME280;11256;50.830;12.834;2022-10-31T07:34:08;98185.84;;;14.01;60.46
22181;BME280;11256;50.830;12.834;2022-10-31T07:39:08;98179.00;;;14.27;60.76
22181;BME280;11256;50.830;12.834;2022-10-31T07:44:10;98183.91;;;15.22;61.54
22181;BME280;11256;50.830;12.834;2022-10-31T07:49:28;98176.47;;;16.81;60.90
22181;BME280;11256;50.830;12.834;2022-10-31T07:54:48;98189.94;;;18.49;58.60
22181;BME280;11256;50.830;12.834;2022-10-31T07:59:56;98187.72;;;19.87;55.67
22181;BME280;11256;50.830;12.834;2022-10-31T08:04:56;98179.38;;;21.08;54.22
22181;BME280;11256;50.830;12.834;2022-10-31T08:10:03;98180.03;;;22.23;52.35
22181;BME280;11256;50.830;12.834;2022-10-31T08:15:05;98183.91;;;23.57;52.56
22181;BME280;11256;50.830;12.834;2022-10-31T08:20:08;98173.06;;;24.54;49.37
22181;BME280;11256;50.830;12.834;2022-10-31T08:25:16;98172.56;;;25.52;48.70
22181;BME280;11256;50.830;12.834;2022-10-31T08:30:17;98172.47;;;26.28;46.16
22181;BME280;11256;50.830;12.834;2022-10-31T08:35:27;98171.91;;;26.90;44.87
22181;BME280;11256;50.830;12.834;2022-10-31T08:40:53;98182.44;;;27.88;44.66
22181;BME280;11256;50.830;12.834;2022-10-31T08:45:54;98175.88;;;28.94;41.29
22181;BME280;11256;50.830;12.834;2022-10-31T08:51:01;98175.22;;;29.82;38.89
22181;BME280;11256;50.830;12.834;2022-10-31T08:56:03;98177.34;;;30.27;38.11
22181;BME280;11256;50.830;12.834;2022-10-31T09:01:03;98168.97;;;30.52;37.83
22181;BME280;11256;50.830;12.834;2022-10-31T09:06:04;98175.00;;;30.75;37.36
22181;BME280;11256;50.830;12.834;2022-10-31T09:11:08;98165.00;;;30.67;37.98
22181;BME280;11256;50.830;12.834;2022-10-31T09:16:27;98164.97;;;31.02;36.79
22181;BME280;11256;50.830;12.834;2022-10-31T09:21:28;98164.97;;;30.95;35.93
22181;BME280;11256;50.830;12.834;2022-10-31T09:26:33;98163.28;;;30.10;36.41
22181;BME280;11256;50.830;12.834;2022-10-31T09:31:41;98155.75;;;29.25;36.93
22181;BME280;11256;50.830;12.834;2022-10-31T09:36:53;98152.75;;;28.43;37.52
22181;BME280;11256;50.830;12.834;2022-10-31T09:47:52;98147.84;;;27.01;37.80
22181;BME280;11256;50.830;12.834;2022-10-31T09:53:11;98148.81;;;26.15;39.03
22181;BME280;11256;50.830;12.834;2022-10-31T09:58:20;98153.22;;;25.21;40.98
22181;BME280;11256;50.830;12.834;2022-10-31T10:03:42;98143.72;;;24.53;42.31
22181;BME280;11256;50.830;12.834;2022-10-31T10:09:04;98148.75;;;24.16;41.56
22181;BME280;11256;50.830;12.834;2022-10-31T10:14:50;98149.22;;;23.75;43.08
22181;BME280;11256;50.830;12.834;2022-10-31T10:25:37;98140.47;;;23.06;44.31
22181;BME280;11256;50.830;12.834;2022-10-31T10:30:53;98120.41;;;22.70;43.60
22181;BME280;11256;50.830;12.834;2022-10-31T10:36:03;98127.56;;;22.23;44.64
22181;BME280;11256;50.830;12.834;2022-10-31T10:41:33;98125.47;;;22.20;46.02
22181;BME280;11256;50.830;12.834;2022-10-31T10:46:42;98111.34;;;22.09;49.80
22181;BME280;11256;50.830;12.834;2022-10-31T10:52:20;98106.13;;;22.20;47.52
22181;BME280;11256;50.830;12.834;2022-10-31T11:02:55;98095.81;;;22.17;46.70
22181;BME280;11256;50.830;12.834;2022-10-31T11:07:55;98093.13;;;22.32;47.71
22181;BME280;11256;50.830;12.834;2022-10-31T11:18:21;98087.50;;;22.53;47.25
22181;BME280;11256;50.830;12.834;2022-10-31T11:23:26;98084.75;;;22.92;50.81
22181;BME280;11256;50.830;12.834;2022-10-31T11:28:28;98072.44;;;23.29;50.55
22181;BME280;11256;50.830;12.834;2022-10-31T11:38:44;98048.78;;;22.65;50.17
22181;BME280;11256;50.830;12.834;2022-10-31T11:43:52;98054.41;;;23.94;49.69
22181;BME280;11256;50.830;12.834;2022-10-31T11:48:54;98036.25;;;24.46;48.98
22181;BME280;11256;50.830;12.834;2022-10-31T11:53:58;98037.50;;;24.49;49.20
22181;BME280;11256;50.830;12.834;2022-10-31T11:59:04;98041.13;;;24.68;49.02
22181;BME280;11256;50.830;12.834;2022-10-31T12:04:12;98020.50;;;24.16;46.15
22181;BME280;11256;50.830;12.834;2022-10-31T12:09:19;98017.41;;;25.09;48.07
22181;BME280;11256;50.830;12.834;2022-10-31T12:20:03;98006.78;;;25.11;47.98
22181;BME280;11256;50.830;12.834;2022-10-31T12:35:59;98006.22;;;26.37;47.64
22181;BME280;11256;50.830;12.834;2022-10-31T12:47:21;97984.34;;;26.61;47.20
22181;BME280;11256;50.830;12.834;2022-10-31T12:57:58;97974.59;;;26.78;46.69
22181;BME280;11256;50.830;12.834;2022-10-31T13:08:30;97956.38;;;26.84;46.72
22181;BME280;11256;50.830;12.834;2022-10-31T13:13:51;97960.91;;;26.95;46.73
22181;BME280;11256;50.830;12.834;2022-10-31T13:18:58;97960.63;;;27.07;46.75
22181;BME280;11256;50.830;12.834;2022-10-31T13:24:03;97956.97;;;27.00;47.15
22181;BME280;11256;50.830;12.834;2022-10-31T13:29:37;97958.13;;;27.28;46.45
22181;BME280;11256;50.830;12.834;2022-10-31T13:34:49;97947.78;;;27.29;46.51
22181;BME280;11256;50.830;12.834;2022-10-31T13:45:17;97947.72;;;27.25;46.81
22181;BME280;11256;50.830;12.834;2022-10-31T13:55:45;97951.31;;;27.26;46.84
22181;BME280;11256;50.830;12.834;2022-10-31T14:01:16;97944.09;;;27.18;46.74
22181;BME280;11256;50.830;12.834;2022-10-31T14:06:18;97938.75;;;27.06;47.20
22181;BME280;11256;50.830;12.834;2022-10-31T14:11:28;97929.91;;;26.97;47.16
22181;BME280;11256;50.830;12.834;2022-10-31T14:16:31;97932.13;;;26.81;47.35
22181;BME280;11256;50.830;12.834;2022-10-31T14:21:42;97927.19;;;26.67;47.34
22181;BME280;11256;50.830;12.834;2022-10-31T14:32:23;97926.91;;;26.46;47.58
22181;BME280;11256;50.830;12.834;2022-10-31T14:43:05;97903.47;;;26.18;47.91
22181;BME280;11256;50.830;12.834;2022-10-31T14:53:36;97898.13;;;25.80;48.04
22181;BME280;11256;50.830;12.834;2022-10-31T14:58:44;97885.53;;;25.60;48.44
22181;BME280;11256;50.830;12.834;2022-10-31T15:03:46;97879.34;;;25.44;48.53
22181;BME280;11256;50.830;12.834;2022-10-31T15:08:49;97869.44;;;25.24;48.25
22181;BME280;11256;50.830;12.834;2022-10-31T15:13:55;97871.53;;;25.08;47.96
22181;BME280;11256;50.830;12.834;2022-10-31T15:18:58;97863.72;;;24.91;48.23
22181;BME280;11256;50.830;12.834;2022-10-31T15:24:01;97859.38;;;24.71;48.39
22181;BME280;11256;50.830;12.834;2022-10-31T15:29:05;97855.44;;;24.53;48.44
22181;BME280;11256;50.830;12.834;2022-10-31T15:34:15;97845.53;;;24.33;48.22
22181;BME280;11256;50.830;12.834;2022-10-31T15:39:17;97835.25;;;24.14;48.35
22181;BME280;11256;50.830;12.834;2022-10-31T15:44:36;97826.88;;;23.92;48.42
22181;BME280;11256;50.830;12.834;2022-10-31T15:49:46;97832.06;;;23.78;48.32
22181;BME280;11256;50.830;12.834;2022-10-31T15:54:50;97827.94;;;23.53;48.42
22181;BME280;11256;50.830;12.834;2022-10-31T15:59:52;97839.59;;;23.43;48.68
22181;BME280;11256;50.830;12.834;2022-10-31T16:05:01;97837.56;;;23.24;48.77
22181;BME280;11256;50.830;12.834;2022-10-31T16:10:03;97826.75;;;23.04;48.66
22181;BME280;11256;50.830;12.834;2022-10-31T16:15:04;97836.72;;;22.93;48.99
22181;BME280;11256;50.830;12.834;2022-10-31T16:20:07;97822.38;;;22.72;49.08
22181;BME280;11256;50.830;12.834;2022-10-31T16:25:16;97826.34;;;22.59;49.22
22181;BME280;11256;50.830;12.834;2022-10-31T16:30:39;97811.50;;;22.36;49.22
22181;BME280;11256;50.830;12.834;2022-10-31T16:35:40;97815.09;;;22.24;49.57
22181;BME280;11256;50.830;12.834;2022-10-31T16:40:41;97813.91;;;22.10;49.60
22181;BME280;11256;50.830;12.834;2022-10-31T16:45:43;97813.16;;;21.97;49.92
22181;BME280;11256;50.830;12.834;2022-10-31T16:50:45;97805.53;;;21.79;49.82
22181;BME280;11256;50.830;12.834;2022-10-31T16:55:52;97806.47;;;21.71;50.15
22181;BME280;11256;50.830;12.834;2022-10-31T17:00:54;97801.19;;;21.54;50.15
22181;BME280;11256;50.830;12.834;2022-10-31T17:05:54;97802.81;;;21.43;50.43
22181;BME280;11256;50.830;12.834;2022-10-31T17:10:56;97800.44;;;21.29;50.63
22181;BME280;11256;50.830;12.834;2022-10-31T17:15:59;97806.75;;;21.18;50.55
22181;BME280;11256;50.830;12.834;2022-10-31T17:21:02;97800.31;;;21.02;50.79
22181;BME280;11256;50.830;12.834;2022-10-31T17:26:03;97803.19;;;20.93;50.99
22181;BME280;11256;50.830;12.834;2022-10-31T17:31:03;97794.13;;;20.81;51.13
22181;BME280;11256;50.830;12.834;2022-10-31T17:36:04;97805.47;;;20.67;51.10
22181;BME280;11256;50.830;12.834;2022-10-31T17:41:05;97797.31;;;20.59;51.17
22181;BME280;11256;50.830;12.834;2022-10-31T17:46:06;97793.59;;;20.43;51.29
22181;BME280;11256;50.830;12.834;2022-10-31T17:51:06;97797.25;;;20.35;51.43
22181;BME280;11256;50.830;12.834;2022-10-31T17:56:08;97783.44;;;20.23;51.64
22181;BME280;11256;50.830;12.834;2022-10-31T18:01:11;97789.38;;;20.13;51.69
22181;BME280;11256;50.830;12.834;2022-10-31T18:06:12;97785.41;;;20.02;51.88
22181;BME280;11256;50.830;12.834;2022-10-31T18:11:18;97788.13;;;19.90;51.95
22181;BME280;11256;50.830;12.834;2022-10-31T18:16:20;97792.56;;;19.82;51.98
22181;BME280;11256;50.830;12.834;2022-10-31T18:21:20;97774.41;;;19.69;51.97
22181;BME280;11256;50.830;12.834;2022-10-31T18:26:21;97769.88;;;19.65;52.14
22181;BME280;11256;50.830;12.834;2022-10-31T18:31:22;97760.78;;;19.52;52.31
22181;BME280;11256;50.830;12.834;2022-10-31T18:36:23;97776.88;;;19.42;52.14
22181;BME280;11256;50.830;12.834;2022-10-31T18:41:23;97768.25;;;19.31;52.31
22181;BME280;11256;50.830;12.834;2022-10-31T18:46:24;97747.25;;;19.18;52.58
22181;BME280;11256;50.830;12.834;2022-10-31T18:51:25;97740.88;;;19.06;52.79
22181;BME280;11256;50.830;12.834;2022-10-31T18:56:28;97751.09;;;19.05;52.65
22181;BME280;11256;50.830;12.834;2022-10-31T19:01:30;97743.88;;;18.92;52.77
22181;BME280;11256;50.830;12.834;2022-10-31T19:06:31;97740.53;;;18.87;52.71
22181;BME280;11256;50.830;12.834;2022-10-31T19:11:32;97745.75;;;18.80;52.96
22181;BME280;11256;50.830;12.834;2022-10-31T19:16:33;97742.25;;;18.71;53.18
22181;BME280;11256;50.830;12.834;2022-10-31T19:21:34;97733.72;;;18.64;53.23
22181;BME280;11256;50.830;12.834;2022-10-31T19:26:34;97724.38;;;18.56;53.35
22181;BME280;11256;50.830;12.834;2022-10-31T19:31:35;97719.91;;;18.52;53.37
22181;BME280;11256;50.830;12.834;2022-10-31T19:36:35;97715.25;;;18.44;53.42
22181;BME280;11256;50.830;12.834;2022-10-31T19:41:39;97702.72;;;18.34;53.63
22181;BME280;11256;50.830;12.834;2022-10-31T19:46:40;97703.31;;;18.31;53.65
22181;BME280;11256;50.830;12.834;2022-10-31T19:51:43;97701.09;;;18.25;53.71
22181;BME280;11256;50.830;12.834;2022-10-31T19:56:44;97694.53;;;18.17;53.79
22181;BME280;11256;50.830;12.834;2022-10-31T20:01:44;97678.91;;;18.01;53.87
22181;BME280;11256;50.830;12.834;2022-10-31T20:06:45;97672.34;;;17.85;53.97
22181;BME280;11256;50.830;12.834;2022-10-31T20:11:46;97681.69;;;17.92;53.96
22181;BME280;11256;50.830;12.834;2022-10-31T20:16:46;97696.53;;;17.91;54.04
22181;BME280;11256;50.830;12.834;2022-10-31T20:21:46;97694.16;;;17.73;53.93
22181;BME280;11256;50.830;12.834;2022-10-31T20:26:47;97675.59;;;17.70;54.21
22181;BME280;11256;50.830;12.834;2022-10-31T20:31:48;97667.91;;;17.63;54.47
22181;BME280;11256;50.830;12.834;2022-10-31T20:36:48;97679.34;;;17.57;54.25
22181;BME280;11256;50.830;12.834;2022-10-31T20:41:48;97689.34;;;17.53;54.57
22181;BME280;11256;50.830;12.834;2022-10-31T20:46:49;97685.16;;;17.47;54.46
22181;BME280;11256;50.830;12.834;2022-10-31T20:51:49;97668.88;;;17.33;54.45
22181;BME280;11256;50.830;12.834;2022-10-31T20:56:49;97660.50;;;17.21;54.84
22181;BME280;11256;50.830;12.834;2022-10-31T21:01:50;97673.59;;;17.16;54.52
22181;BME280;11256;50.830;12.834;2022-10-31T21:06:50;97666.97;;;16.91;55.29
22181;BME280;11256;50.830;12.834;2022-10-31T21:11:50;97654.06;;;16.83;55.19
22181;BME280;11256;50.830;12.834;2022-10-31T21:16:51;97657.78;;;16.79;55.29
22181;BME280;11256;50.830;12.834;2022-10-31T21:21:51;97668.06;;;16.73;55.26
22181;BME280;11256;50.830;12.834;2022-10-31T21:26:52;97671.31;;;16.67;55.21
22181;BME280;11256;50.830;12.834;2022-10-31T21:31:52;97653.06;;;16.54;55.46
22181;BME280;11256;50.830;12.834;2022-10-31T21:36:53;97644.69;;;16.42;55.32
22181;BME280;11256;50.830;12.834;2022-10-31T21:41:53;97646.41;;;16.38;55.44
22181;BME280;11256;50.830;12.834;2022-10-31T21:46:53;97657.00;;;16.31;55.25
22181;BME280;11256;50.830;12.834;2022-10-31T21:51:54;97649.56;;;16.23;55.58
22181;BME280;11256;50.830;12.834;2022-10-31T21:56:56;97636.22;;;16.13;55.54
22181;BME280;11256;50.830;12.834;2022-10-31T22:01:57;97637.31;;;16.12;55.84
22181;BME280;11256;50.830;12.834;2022-10-31T22:06:59;97625.06;;;16.01;55.53
22181;BME280;11256;50.830;12.834;2022-10-31T22:11:59;97619.25;;;15.94;55.54
22181;BME280;11256;50.830;12.834;2022-10-31T22:17:05;97617.78;;;15.88;55.59
22181;BME280;11256;50.830;12.834;2022-10-31T22:22:06;97598.94;;;15.78;56.00
22181;BME280;11256;50.830;12.834;2022-10-31T22:27:06;97597.31;;;15.77;55.92
22181;BME280;11256;50.830;12.834;2022-10-31T22:32:06;97591.53;;;15.70;56.04
22181;BME280;11256;50.830;12.834;2022-10-31T22:37:07;97577.00;;;15.61;56.05
22181;BME280;11256;50.830;12.834;2022-10-31T22:42:07;97577.00;;;15.61;55.87
22181;BME280;11256;50.830;12.834;2022-10-31T22:47:07;97573.41;;;15.52;56.01
22181;BME280;11256;50.830;12.834;2022-10-31T22:52:08;97566.00;;;15.44;56.22
22181;BME280;11256;50.830;12.834;2022-10-31T22:57:08;97559.84;;;15.38;56.26
22181;BME280;11256;50.830;12.834;2022-10-31T23:02:08;97557.78;;;15.35;56.14
22181;BME280;11256;50.830;12.834;2022-10-31T23:07:09;97550.28;;;15.27;56.23
22181;BME280;11256;50.830;12.834;2022-10-31T23:12:09;97552.38;;;15.22;56.29
22181;BME280;11256;50.830;12.834;2022-10-31T23:17:28;97549.78;;;15.17;56.14
22181;BME280;11256;50.830;12.834;2022-10-31T23:22:29;97554.25;;;15.13;56.14
22181;BME280;11256;50.830;12.834;2022-10-31T23:27:29;97543.44;;;15.08;56.54
22181;BME280;11256;50.830;12.834;2022-10-31T23:32:35;97545.22;;;15.04;56.44
22181;BME280;11256;50.830;12.834;2022-10-31T23:37:37;97545.47;;;14.94;56.48
22181;BME280;11256;50.830;12.834;2022-10-31T23:42:37;97536.41;;;14.85;56.48
22181;BME280;11256;50.830;12.834;2022-10-31T23:47:37;97529.16;;;14.80;56.54
22181;BME280;11256;50.830;12.834;2022-10-31T23:52:38;97521.91;;;14.76;56.62
22181;BME280;11256;50.830;12.834;2022-10-31T23:57:38;97509.63;;;14.65;56.57
